createdAt,value
2018-07-05T00:02:23.681Z,98.10
2018-07-05T00:07:34.008Z,98.00
2018-07-05T00:12:44.317Z,97.80
2018-07-05T00:22:59.195Z,97.20
2018-07-05T00:28:09.587Z,97.10
2018-07-05T00:33:20.033Z,97.30
2018-07-05T00:38:30.541Z,97.50
2018-07-05T00:43:41.017Z,97.70
2018-07-05T00:48:51.198Z,97.70
2018-07-05T00:54:01.768Z,97.70
2018-07-05T00:59:12.152Z,97.70
2018-07-05T01:04:22.587Z,97.80
2018-07-05T01:09:33.083Z,97.70
2018-07-05T01:14:43.547Z,97.70
2018-07-05T01:19:53.830Z,97.80
2018-07-05T01:25:04.306Z,97.70
2018-07-05T01:30:14.989Z,97.80
2018-07-05T01:35:25.359Z,97.60
2018-07-05T01:40:35.721Z,97.50
2018-07-05T01:45:46.011Z,97.30
2018-07-05T01:50:56.543Z,97.50
2018-07-05T01:56:06.816Z,97.60
2018-07-05T02:06:21.728Z,97.40
2018-07-05T02:16:36.660Z,97.80
2018-07-05T02:21:47.760Z,98.20
2018-07-05T02:26:58.175Z,98.00
2018-07-05T02:32:08.546Z,97.80
2018-07-05T02:37:24.670Z,97.90
2018-07-05T02:42:35.162Z,98.10
2018-07-05T02:52:50.029Z,98.40
2018-07-05T02:58:00.327Z,98.50
2018-07-05T03:03:10.666Z,98.50
2018-07-05T03:08:21.059Z,98.10
2018-07-05T03:13:31.752Z,98.30
2018-07-05T03:18:42.184Z,98.60
2018-07-05T03:23:52.668Z,98.70
2018-07-05T03:29:03.000Z,98.60
2018-07-05T03:34:13.262Z,98.70
2018-07-05T03:39:23.724Z,98.70
2018-07-05T03:44:34.024Z,98.70
2018-07-05T03:49:44.424Z,99.10
2018-07-05T03:54:54.621Z,98.30
2018-07-05T04:00:04.970Z,98.20
2018-07-05T04:05:15.880Z,98.20
2018-07-05T04:15:31.163Z,98.20
2018-07-05T04:20:41.550Z,98.00
2018-07-05T04:25:51.849Z,98.00
2018-07-05T04:31:02.179Z,97.20
2018-07-05T04:36:12.673Z,96.70
2018-07-05T04:41:22.988Z,96.60
2018-07-05T04:46:33.233Z,96.50
2018-07-05T04:51:43.588Z,96.20
2018-07-05T04:56:53.949Z,95.50
2018-07-05T05:02:04.338Z,95.20
2018-07-05T05:07:14.658Z,94.80
2018-07-05T05:12:25.044Z,93.90
2018-07-05T05:17:35.379Z,91.70
2018-07-05T05:22:45.724Z,88.30
2018-07-05T05:27:56.211Z,86.50
2018-07-05T05:33:06.502Z,85.60
2018-07-05T05:38:16.761Z,83.80
2018-07-05T05:43:27.033Z,79.10
2018-07-05T05:48:37.315Z,71.30
2018-07-05T05:53:47.652Z,65.60
2018-07-05T05:58:57.980Z,62.80
2018-07-05T06:04:08.362Z,64.40
2018-07-05T06:09:18.717Z,61.60
2018-07-05T06:14:29.042Z,62.70
2018-07-05T06:19:39.450Z,63.20
2018-07-05T06:24:49.775Z,67.80
2018-07-05T06:35:04.846Z,57.50
2018-07-05T06:40:15.343Z,51.50
2018-07-05T06:45:25.868Z,47.50
2018-07-05T06:50:36.129Z,51.40
2018-07-05T06:55:46.594Z,48.00
2018-07-05T07:00:57.071Z,48.50
2018-07-05T07:06:07.386Z,47.00
2018-07-05T07:11:17.832Z,45.60
2018-07-05T07:16:28.152Z,43.20
2018-07-05T07:21:38.463Z,42.10
2018-07-05T07:26:48.801Z,41.80
2018-07-05T07:31:59.281Z,44.10
2018-07-05T07:41:55.236Z,42.70
2018-07-05T07:46:47.590Z,42.40
2018-07-05T07:51:39.164Z,41.60
2018-07-05T07:56:30.756Z,41.80
2018-07-05T08:01:22.343Z,40.90
2018-07-05T08:06:13.921Z,41.20
2018-07-05T08:11:05.494Z,40.90
2018-07-05T08:15:57.068Z,41.00
2018-07-05T08:25:41.173Z,40.40
2018-07-05T08:30:32.749Z,43.70
2018-07-05T08:35:24.324Z,44.30
2018-07-05T08:40:15.933Z,46.50
2018-07-05T08:45:07.505Z,46.50
2018-07-05T08:54:51.156Z,48.40
2018-07-05T08:59:42.806Z,50.20
2018-07-05T09:04:34.586Z,49.20
2018-07-05T09:09:26.204Z,46.60
2018-07-05T09:14:17.832Z,47.00
2018-07-05T09:19:09.428Z,46.20
2018-07-05T09:24:01.022Z,46.10
2018-07-05T09:28:52.860Z,45.50
2018-07-05T09:33:44.527Z,47.00
2018-07-05T09:38:36.112Z,47.90
2018-07-05T09:43:27.932Z,46.90
2018-07-05T09:48:19.550Z,46.50
2018-07-05T09:53:11.131Z,47.80
2018-07-05T09:58:02.735Z,47.10
2018-07-05T10:02:54.344Z,48.10
2018-07-05T10:07:45.938Z,48.20
2018-07-05T10:12:37.513Z,49.80
2018-07-05T10:17:29.092Z,49.20
2018-07-05T10:22:20.843Z,50.50
2018-07-05T10:27:12.436Z,52.10
2018-07-05T10:32:22.864Z,52.20
2018-07-05T10:42:30.703Z,53.00
2018-07-05T10:47:41.058Z,53.00
2018-07-05T10:52:51.593Z,52.70
2018-07-05T10:58:02.149Z,52.10
2018-07-05T11:08:17.063Z,51.90
2018-07-05T11:18:31.800Z,49.60
2018-07-05T11:23:42.104Z,47.70
2018-07-05T11:28:52.418Z,48.20
2018-07-05T11:34:02.756Z,46.70
2018-07-05T11:39:13.234Z,47.90
2018-07-05T11:44:23.455Z,48.10
2018-07-05T11:54:38.158Z,46.90
2018-07-05T11:59:48.612Z,45.00
2018-07-05T12:04:59.080Z,43.60
2018-07-05T12:10:09.380Z,44.60
2018-07-05T12:15:19.650Z,44.10
2018-07-05T12:20:29.991Z,45.10
2018-07-05T12:25:40.238Z,44.90
2018-07-05T12:30:50.665Z,44.50
2018-07-05T12:36:00.987Z,43.70
2018-07-05T12:41:11.291Z,43.70
2018-07-05T12:46:21.600Z,44.50
2018-07-05T12:51:31.854Z,45.00
2018-07-05T12:56:42.120Z,45.30
2018-07-05T13:01:52.446Z,46.00
2018-07-05T13:12:07.357Z,48.60
2018-07-05T13:17:17.612Z,49.50
2018-07-05T13:22:27.883Z,50.10
2018-07-05T13:27:38.595Z,50.60
2018-07-05T13:32:49.132Z,51.30
2018-07-05T13:37:59.510Z,50.90
2018-07-05T13:43:09.920Z,50.00
2018-07-05T13:53:24.721Z,47.80
2018-07-05T14:03:39.742Z,48.10
2018-07-05T14:08:50.004Z,47.90
2018-07-05T14:14:00.326Z,47.60
2018-07-05T14:19:10.771Z,49.50
2018-07-05T14:29:25.669Z,49.00
2018-07-05T14:34:35.812Z,50.00
2018-07-05T14:39:46.052Z,48.90
2018-07-05T14:44:56.645Z,48.30
2018-07-05T14:50:06.940Z,47.40
2018-07-05T14:55:17.275Z,46.80
2018-07-05T15:00:27.439Z,46.30
2018-07-05T15:05:37.892Z,46.30
2018-07-05T15:10:48.330Z,47.50
2018-07-05T15:15:58.817Z,47.90
2018-07-05T15:21:09.128Z,48.10
2018-07-05T15:26:19.430Z,48.60
2018-07-05T15:31:29.782Z,49.50
2018-07-05T15:46:49.672Z,49.50
2018-07-05T15:52:00.137Z,49.10
2018-07-05T15:57:10.333Z,48.40
2018-07-05T16:02:20.766Z,46.90
2018-07-05T16:07:31.130Z,46.50
2018-07-05T16:12:41.498Z,46.30
2018-07-05T16:17:51.717Z,46.40
2018-07-05T16:23:01.943Z,46.30
2018-07-05T16:28:12.292Z,46.00
2018-07-05T16:33:22.696Z,45.70
2018-07-05T16:38:33.086Z,45.70
2018-07-05T16:43:43.533Z,46.10
2018-07-05T16:48:53.884Z,47.30
2018-07-05T16:54:04.265Z,48.20
2018-07-05T16:59:14.476Z,48.30
2018-07-05T17:04:24.796Z,48.40
2018-07-05T17:09:35.310Z,48.70
2018-07-05T17:14:45.666Z,49.30
2018-07-05T17:19:56.637Z,48.80
2018-07-05T17:25:06.942Z,47.80
2018-07-05T17:30:17.336Z,48.50
2018-07-05T17:35:27.607Z,48.60
2018-07-05T17:40:38.058Z,49.20
2018-07-05T17:45:48.442Z,49.90
2018-07-05T17:52:02.342Z,50.10
2018-07-05T17:57:12.616Z,50.80
2018-07-05T18:02:23.010Z,51.40
2018-07-05T18:12:37.917Z,50.00
2018-07-05T18:17:48.265Z,49.60
2018-07-05T18:22:58.501Z,50.50
2018-07-05T18:28:08.942Z,49.20
2018-07-05T18:33:19.262Z,48.60
2018-07-05T18:38:29.573Z,48.90
2018-07-05T18:43:39.912Z,49.20
2018-07-05T18:48:50.282Z,49.20
2018-07-05T18:54:00.743Z,49.20
2018-07-05T18:59:11.099Z,49.70
2018-07-05T19:04:21.579Z,49.80
2018-07-05T19:09:31.923Z,50.10
2018-07-05T19:14:42.193Z,50.60
2018-07-05T19:19:54.664Z,51.40
2018-07-05T19:25:05.173Z,51.90
2018-07-05T19:30:15.530Z,52.70
2018-07-05T19:35:26.047Z,53.60
2018-07-05T19:40:36.534Z,54.40
2018-07-05T19:45:46.842Z,55.20
2018-07-05T19:50:57.155Z,56.00
2018-07-05T19:56:07.321Z,56.80
2018-07-05T20:01:17.605Z,57.70
2018-07-05T20:06:28.672Z,58.60
2018-07-05T20:11:43.616Z,59.60
2018-07-05T20:16:53.888Z,60.60
2018-07-05T20:22:08.478Z,62.00
2018-07-05T20:27:18.784Z,62.90
2018-07-05T20:32:29.273Z,63.90
2018-07-05T20:37:41.307Z,64.90
2018-07-05T20:42:51.739Z,65.50
2018-07-05T20:53:06.908Z,66.80
2018-07-05T20:58:17.172Z,67.20
2018-07-05T21:03:27.490Z,67.90
2018-07-05T21:08:38.065Z,68.30
2018-07-05T21:13:48.532Z,68.70
2018-07-05T21:18:59.004Z,68.40
2018-07-05T21:24:09.390Z,68.70
2018-07-05T21:29:19.765Z,68.60
2018-07-05T21:34:30.130Z,68.80
2018-07-05T21:39:40.525Z,68.60
2018-07-05T21:44:50.871Z,68.20
2018-07-05T21:50:01.291Z,67.60
2018-07-05T21:55:11.751Z,67.90
2018-07-05T22:00:22.104Z,68.10
2018-07-05T22:05:32.642Z,68.50
2018-07-05T22:15:47.451Z,69.30
2018-07-05T22:26:13.773Z,70.10
2018-07-05T22:31:29.782Z,70.30
2018-07-05T22:36:40.119Z,70.90
2018-07-05T22:46:54.795Z,72.40
2018-07-05T22:52:05.010Z,73.00
2018-07-05T22:57:15.380Z,74.10
2018-07-05T23:07:30.903Z,76.00
2018-07-05T23:22:50.221Z,79.30
2018-07-05T23:28:00.376Z,80.40
2018-07-05T23:33:10.580Z,81.20
2018-07-05T23:38:20.822Z,82.10
2018-07-05T23:43:31.136Z,83.10
2018-07-05T23:48:41.487Z,84.10
2018-07-05T23:53:51.839Z,84.70
2018-07-05T23:59:02.128Z,85.30
